Time;durP1;ratioP1;P1;durP2;ratioP2;P2;SDS_P1;SDS_P2;PMS_P1;PMS_P2;Temp;Humidity;BMP_temperature;BMP_pressure;BME280_temperature;BME280_humidity;BME280_pressure;Samples;Min_cycle;Max_cycle;Signal;HPM_P1;HPM_P2
2022/07/04 00:01:58;;;;;;;9.50;6.20;;;;;;;20.53;73.77;99058.28;104750;1276;75859;-25
2022/07/04 00:04:25;;;;;;;11.50;6.80;;;;;;;20.50;72.70;99058.61;104980;1274;76016;-25
2022/07/04 00:06:53;;;;;;;10.80;8.10;;;;;;;20.26;73.59;99059.41;104861;1274;75299;-24
2022/07/04 00:09:21;;;;;;;8.70;7.40;;;;;;;19.93;73.69;99062.67;104761;1274;62972;-24
2022/07/04 00:11:48;;;;;;;10.60;8.10;;;;;;;19.61;75.07;99064.47;104632;1274;61100;-24
2022/07/04 00:14:15;;;;;;;8.70;5.70;;;;;;;19.35;76.45;99067.25;104572;1273;76630;-24
2022/07/04 00:16:43;;;;;;;7.20;6.10;;;;;;;19.72;75.90;99064.84;104753;1274;76029;-24
2022/07/04 00:19:10;;;;;;;11.00;7.50;;;;;;;20.21;74.63;99061.27;104698;1271;73631;-24
2022/07/04 00:21:38;;;;;;;9.10;6.40;;;;;;;20.23;74.19;99064.88;104678;1273;62831;-25
2022/07/04 00:24:05;;;;;;;10.20;7.60;;;;;;;19.98;73.61;99065.64;104703;1272;62007;-24
2022/07/04 00:26:32;;;;;;;9.30;8.30;;;;;;;19.68;74.02;99063.36;104800;1272;76581;-23
2022/07/04 00:29:00;;;;;;;9.00;7.20;;;;;;;19.37;75.04;99061.50;104714;1274;76677;-24
2022/07/04 00:31:27;;;;;;;7.40;6.60;;;;;;;19.07;75.49;99059.08;104854;1274;75228;-24
2022/07/04 00:33:55;;;;;;;9.50;7.10;;;;;;;19.37;76.06;99054.84;105113;1274;63374;-25
2022/07/04 00:36:22;;;;;;;10.00;8.70;;;;;;;19.81;75.07;99055.11;104872;1274;61164;-24
2022/07/04 00:38:49;;;;;;;14.20;10.10;;;;;;;19.81;74.91;99054.84;104774;1273;75514;-24
2022/07/04 00:41:19;;;;;;;11.20;8.60;;;;;;;19.51;75.93;99050.95;104784;1274;77113;-24
2022/07/04 00:44:07;;;;;;;8.80;7.30;;;;;;;19.16;76.09;99051.30;105032;1274;75371;-24
2022/07/04 00:46:40;;;;;;;11.50;8.10;;;;;;;18.77;76.82;99045.85;104940;1271;61342;-24
2022/07/04 00:49:08;;;;;;;6.90;6.30;;;;;;;18.49;78.95;99047.27;104815;1273;61953;-24
2022/07/04 00:51:37;;;;;;;7.40;6.30;;;;;;;18.90;79.06;99049.02;104718;1271;76693;-25
2022/07/04 00:54:06;;;;;;;7.40;6.70;;;;;;;19.41;77.23;99048.02;104576;1273;76036;-25
2022/07/04 00:56:35;;;;;;;9.00;7.50;;;;;;;19.46;76.28;99045.90;104719;1274;74053;-24
2022/07/04 00:59:03;;;;;;;8.60;7.20;;;;;;;19.31;76.72;99044.33;104746;1272;61307;-25
2022/07/04 01:01:30;;;;;;;8.00;7.00;;;;;;;19.08;77.54;99045.58;104681;1273;63377;-24
2022/07/04 01:03:58;;;;;;;7.00;5.60;;;;;;;18.90;77.97;99042.20;105021;1272;76679;-24
2022/07/04 01:06:25;;;;;;;6.90;5.70;;;;;;;19.27;76.97;99044.91;104717;1272;76184;-25
2022/07/04 01:08:52;;;;;;;7.10;6.20;;;;;;;19.64;75.89;99044.98;104762;1274;75421;-25
2022/07/04 01:11:20;;;;;;;7.80;6.80;;;;;;;19.55;75.63;99043.98;104594;1274;63066;-25
2022/07/04 01:13:47;;;;;;;8.60;7.70;;;;;;;19.25;75.99;99041.20;104786;1271;63036;-24
2022/07/04 01:16:15;;;;;;;7.80;6.60;;;;;;;18.87;76.17;99042.52;104641;1272;76614;-25
2022/07/04 01:18:42;;;;;;;6.80;6.10;;;;;;;18.48;76.63;99040.13;104763;1274;77058;-24
2022/07/04 01:21:11;;;;;;;5.20;4.70;;;;;;;18.21;78.09;99040.90;104827;1273;75713;-24
2022/07/04 01:23:39;;;;;;;7.80;5.30;;;;;;;18.57;78.07;99035.59;104835;1271;62696;-25
2022/07/04 01:26:07;;;;;;;6.80;5.60;;;;;;;19.02;77.16;99031.68;104882;1274;61153;-25
2022/07/04 01:28:34;;;;;;;6.90;6.20;;;;;;;19.00;77.38;99033.15;105107;1274;75308;-24
2022/07/04 01:31:02;;;;;;;6.90;6.30;;;;;;;18.77;77.36;99029.98;105068;1272;74908;-25
2022/07/04 01:33:29;;;;;;;12.40;6.60;;;;;;;18.47;77.73;99031.61;105073;1274;74543;-25
2022/07/04 01:35:56;;;;;;;5.50;5.00;;;;;;;18.22;78.70;99032.03;105034;1274;64797;-25
2022/07/04 01:38:24;;;;;;;7.30;4.70;;;;;;;18.52;78.72;99030.16;104960;1274;61762;-24
2022/07/04 01:40:51;;;;;;;6.30;5.00;;;;;;;18.86;76.52;99029.92;104729;1274;76646;-24
2022/07/04 01:43:19;;;;;;;6.00;5.40;;;;;;;18.74;76.57;99026.65;104798;1272;76405;-24
2022/07/04 01:45:47;;;;;;;6.30;5.70;;;;;;;18.42;77.36;99028.50;104828;1272;74246;-24
2022/07/04 01:48:15;;;;;;;7.00;6.30;;;;;;;18.08;78.00;99030.43;104904;1271;63094;-25
2022/07/04 01:50:43;;;;;;;5.80;4.80;;;;;;;17.77;78.91;99034.89;104841;1274;62734;-24
2022/07/04 01:53:11;;;;;;;6.10;4.70;;;;;;;18.01;79.01;99032.80;104687;1274;75627;-24
2022/07/04 01:55:39;;;;;;;7.30;6.00;;;;;;;18.32;77.58;99029.25;105019;1272;75829;-24
2022/07/04 01:58:06;;;;;;;6.60;5.80;;;;;;;18.22;77.87;99031.71;104793;1274;75717;-25
2022/07/04 02:03:20;;;;;;;6.20;5.50;;;;;;;17.65;79.92;99033.64;104652;1274;62756;-24
2022/07/04 02:05:47;;;;;;;5.40;3.60;;;;;;;17.43;80.66;99036.58;104870;1273;76421;-23
2022/07/04 02:08:14;;;;;;;5.40;4.60;;;;;;;17.81;79.99;99030.42;104933;1274;76001;-23
2022/07/04 02:10:41;;;;;;;4.80;4.30;;;;;;;18.24;78.81;99031.03;105041;1274;75351;-25
2022/07/04 02:13:09;;;;;;;7.10;5.10;;;;;;;18.20;78.19;99030.30;105044;1274;61971;-25
2022/07/04 02:15:38;;;;;;;7.90;6.00;;;;;;;17.95;78.77;99031.52;104860;1274;62317;-25
2022/07/04 02:18:06;;;;;;;9.80;5.80;;;;;;;17.66;79.75;99032.61;104640;1274;75533;-24
2022/07/04 02:20:34;;;;;;;6.20;5.00;;;;;;;17.45;80.48;99034.96;104742;1274;76736;-24
2022/07/04 02:23:02;;;;;;;5.50;4.90;;;;;;;17.79;79.94;99031.66;105089;1274;75336;-24
2022/07/04 02:25:30;;;;;;;6.00;5.10;;;;;;;18.17;78.49;99025.04;104785;1274;63077;-24
2022/07/04 02:27:57;;;;;;;5.90;5.30;;;;;;;18.12;78.18;99026.66;105054;1274;63189;-24
2022/07/04 02:30:24;;;;;;;5.50;5.00;;;;;;;17.95;78.36;99028.04;104898;1274;75561;-24
2022/07/04 02:32:52;;;;;;;7.60;6.20;;;;;;;17.79;78.38;99032.61;104610;1274;75787;-24
2022/07/04 02:35:19;;;;;;;7.00;4.30;;;;;;;17.67;79.05;99030.16;104685;1274;75587;-24
2022/07/04 02:37:47;;;;;;;6.70;4.80;;;;;;;18.10;78.64;99031.42;104994;1271;62916;-24
2022/07/04 02:40:14;;;;;;;9.90;5.40;;;;;;;18.59;76.91;99031.19;104857;1274;63327;-25
2022/07/04 02:42:42;;;;;;;6.70;5.00;;;;;;;18.67;76.08;99033.73;104662;1271;76436;-24
2022/07/04 02:45:10;;;;;;;6.80;5.60;;;;;;;18.52;76.05;99038.59;104731;1274;77017;-24
2022/07/04 02:47:38;;;;;;;5.60;5.00;;;;;;;18.33;76.00;99038.84;104807;1274;75243;-24
2022/07/04 02:50:06;;;;;;;6.60;4.40;;;;;;;18.14;76.42;99032.34;105045;1274;62475;-24
2022/07/04 02:52:33;;;;;;;4.90;4.20;;;;;;;18.50;76.67;99029.67;104841;1272;61159;-24
2022/07/04 02:55:01;;;;;;;6.90;5.00;;;;;;;19.01;75.34;99028.30;105040;1271;75574;-25
2022/07/04 02:57:29;;;;;;;7.00;5.10;;;;;;;19.14;74.62;99030.90;105087;1274;75998;-24
2022/07/04 02:59:56;;;;;;;5.70;5.10;;;;;;;19.06;74.62;99030.56;104684;1274;75465;-24
2022/07/04 03:02:23;;;;;;;6.30;5.50;;;;;;;18.89;74.63;99033.19;104748;1274;61133;-24
2022/07/04 03:04:51;;;;;;;6.50;4.80;;;;;;;18.71;75.29;99028.88;104972;1274;61125;-24
2022/07/04 03:07:18;;;;;;;15.10;6.00;;;;;;;19.01;75.40;99029.34;104956;1274;76482;-25
2022/07/04 03:09:46;;;;;;;14.70;7.40;;;;;;;19.44;74.48;99030.98;104912;1274;75986;-25
2022/07/04 03:12:13;;;;;;;15.60;7.60;;;;;;;19.48;73.85;99030.85;104819;1274;74149;-24
2022/07/04 03:14:41;;;;;;;12.80;6.90;;;;;;;19.30;74.15;99035.48;104928;1271;61817;-24
2022/07/04 03:17:08;;;;;;;10.90;6.90;;;;;;;19.03;74.63;99033.45;104900;1274;61131;-24
2022/07/04 03:19:36;;;;;;;9.30;6.20;;;;;;;18.78;75.42;99036.21;104918;1274;76569;-24
2022/07/04 03:22:03;;;;;;;5.60;4.20;;;;;;;18.66;75.98;99033.91;105041;1274;76999;-25
2022/07/04 03:24:31;;;;;;;6.60;4.70;;;;;;;19.13;75.53;99037.27;104732;1273;75709;-24
2022/07/04 03:26:58;;;;;;;7.60;4.80;;;;;;;19.66;73.83;99032.74;104767;1272;62611;-25
2022/07/04 03:29:26;;;;;;;6.90;5.20;;;;;;;19.72;72.97;99033.59;105029;1274;62996;-25
2022/07/04 03:31:54;;;;;;;8.10;6.00;;;;;;;19.53;73.02;99034.89;105047;1274;75437;-24
2022/07/04 03:34:21;;;;;;;6.30;5.70;;;;;;;19.39;73.71;99032.79;104711;1274;75770;-25
2022/07/04 03:36:51;;;;;;;7.60;6.60;;;;;;;19.44;73.63;99037.06;104587;1274;75399;-24
2022/07/04 03:39:18;;;;;;;6.80;5.20;;;;;;;19.47;73.99;99043.95;104582;1273;64770;-24
2022/07/04 03:41:45;;;;;;;6.10;4.80;;;;;;;19.99;73.62;99046.27;104864;1274;62009;-24
2022/07/04 03:44:13;;;;;;;8.50;5.70;;;;;;;20.57;72.10;99044.72;104781;1274;76409;-25
2022/07/04 03:46:40;;;;;;;7.40;5.20;;;;;;;20.71;71.59;99048.14;104895;1274;76760;-24
2022/07/04 03:49:08;;;;;;;7.50;6.10;;;;;;;20.55;71.31;99042.06;104834;1274;75395;-25
2022/07/04 03:51:36;;;;;;;14.40;7.10;;;;;;;20.21;72.10;99045.20;105064;1274;61150;-24
2022/07/04 03:54:04;;;;;;;10.20;7.00;;;;;;;19.96;73.04;99050.39;105052;1274;62650;-24
2022/07/04 03:56:31;;;;;;;5.50;4.80;;;;;;;19.85;73.59;99054.64;104991;1274;75945;-24
2022/07/04 03:58:59;;;;;;;8.60;4.80;;;;;;;20.30;73.34;99057.38;104802;1274;76950;-24
2022/07/04 04:01:26;;;;;;;9.00;5.80;;;;;;;20.83;72.37;99050.69;104731;1273;75142;-25
2022/07/04 04:06:42;;;;;;;9.10;6.20;;;;;;;20.91;71.62;99045.91;104731;1271;62127;-24
2022/07/04 04:09:16;;;;;;;9.10;6.80;;;;;;;20.83;71.91;99050.73;104990;1271;75511;-24
2022/07/04 04:11:43;;;;;;;8.70;7.30;;;;;;;20.75;72.07;99055.45;104839;1274;76911;-24
2022/07/04 04:14:12;;;;;;;5.60;5.10;;;;;;;20.62;72.15;99048.61;104582;1274;73547;-24
2022/07/04 04:16:41;;;;;;;11.80;5.60;;;;;;;21.04;71.95;99047.70;104643;1274;61883;-24
2022/07/04 04:19:12;;;;;;;7.20;6.00;;;;;;;21.46;69.90;99047.46;104732;1274;62796;-24
2022/07/04 04:21:39;;;;;;;9.60;7.40;;;;;;;21.49;70.04;99048.17;104866;1274;75515;-25
2022/07/04 04:24:07;;;;;;;10.60;8.20;;;;;;;21.38;70.39;99051.09;104579;1274;76935;-24
2022/07/04 04:26:35;;;;;;;18.00;11.50;;;;;;;21.27;70.85;99051.55;104756;1274;75467;-24
2022/07/04 04:29:02;;;;;;;29.30;17.70;;;;;;;21.10;71.00;99054.64;104921;1274;63082;-25
2022/07/04 04:31:31;;;;;;;30.00;17.60;;;;;;;20.87;71.36;99055.30;104947;1273;62941;-24
2022/07/04 04:33:58;;;;;;;18.80;11.00;;;;;;;20.77;71.95;99060.61;104837;1273;76559;-24
2022/07/04 04:36:26;;;;;;;19.60;11.80;;;;;;;21.32;71.47;99058.15;104923;1274;75979;-24
2022/07/04 04:38:53;;;;;;;16.00;10.60;;;;;;;22.02;68.75;99055.91;104581;1274;75368;-25
2022/07/04 04:41:21;;;;;;;16.20;11.90;;;;;;;22.21;67.74;99052.52;104558;1274;63024;-25
2022/07/04 04:43:48;;;;;;;13.40;10.60;;;;;;;22.29;67.88;99052.58;105023;1274;62938;-25
2022/07/04 04:46:20;;;;;;;14.30;11.20;;;;;;;22.44;67.95;99049.77;104961;1274;76619;-24
2022/07/04 04:48:47;;;;;;;18.00;11.10;;;;;;;22.61;67.30;99049.69;104765;1274;76765;-24
2022/07/04 04:51:15;;;;;;;13.90;11.10;;;;;;;22.59;67.25;99048.88;105078;1274;75625;-24
2022/07/04 04:53:42;;;;;;;9.60;7.10;;;;;;;22.54;67.80;99047.04;104749;1274;63812;-25
2022/07/04 04:56:10;;;;;;;20.20;8.50;;;;;;;23.09;67.47;99045.66;104718;1274;61157;-24
2022/07/04 04:58:37;;;;;;;14.60;10.20;;;;;;;23.87;65.56;99044.84;104847;1274;76937;-25
2022/07/04 05:01:05;;;;;;;17.30;13.10;;;;;;;24.23;64.07;99046.57;104837;1274;77398;-24
2022/07/04 05:03:52;;;;;;;31.30;16.80;;;;;;;24.41;63.73;99048.86;104487;1274;75522;-25
2022/07/04 05:06:20;;;;;;;20.10;14.00;;;;;;;24.49;62.83;99041.04;104646;1274;61933;-24
2022/07/04 05:08:49;;;;;;;31.00;19.00;;;;;;;24.59;61.92;99041.02;104508;1273;61138;-24
2022/07/04 05:11:17;;;;;;;17.70;12.30;;;;;;;24.76;62.25;99041.80;104654;1274;76477;-25
2022/07/04 05:13:45;;;;;;;12.00;10.00;;;;;;;24.66;61.62;99043.92;104876;1274;76994;-24
2022/07/04 05:16:13;;;;;;;11.10;9.40;;;;;;;24.72;61.53;99044.69;104799;1274;74462;-23
2022/07/04 05:18:41;;;;;;;17.60;10.50;;;;;;;24.34;61.89;99047.20;104924;1273;62743;-24
2022/07/04 05:21:08;;;;;;;16.30;10.50;;;;;;;24.07;62.88;99050.07;104830;1273;61698;-23
2022/07/04 05:23:35;;;;;;;10.80;9.70;;;;;;;24.61;63.10;99048.50;104836;1274;75384;-24
2022/07/04 05:26:05;;;;;;;12.10;10.40;;;;;;;24.85;61.87;99047.63;104877;1274;77013;-24
2022/07/04 05:28:35;;;;;;;12.30;9.90;;;;;;;25.08;61.41;99053.39;104629;1274;74774;-24
2022/07/04 05:31:03;;;;;;;10.40;9.40;;;;;;;25.17;60.69;99053.34;104610;1274;62867;-24
2022/07/04 05:33:30;;;;;;;12.10;9.90;;;;;;;25.23;60.62;99054.50;104596;1273;61287;-24
2022/07/04 05:35:57;;;;;;;11.70;9.20;;;;;;;25.29;60.96;99052.98;104502;1275;75513;-24
2022/07/04 05:38:24;;;;;;;11.10;9.00;;;;;;;25.45;60.26;99055.48;104583;1274;76819;-24
2022/07/04 05:40:52;;;;;;;12.10;9.00;;;;;;;25.57;59.29;99050.23;104581;1273;75470;-24
2022/07/04 05:43:21;;;;;;;8.80;8.00;;;;;;;25.60;59.41;99052.89;104584;1274;63016;-24
2022/07/04 05:45:48;;;;;;;10.80;8.60;;;;;;;25.55;59.74;99053.33;104664;1274;63021;-24
2022/07/04 05:48:17;;;;;;;9.30;8.20;;;;;;;25.50;59.57;99061.30;104667;1274;76626;-24
2022/07/04 05:50:44;;;;;;;9.40;8.10;;;;;;;25.56;59.38;99056.55;104625;1274;77029;-24
2022/07/04 05:53:11;;;;;;;10.40;7.80;;;;;;;25.66;59.57;99055.11;104538;1274;75400;-24
2022/07/04 05:55:39;;;;;;;9.50;7.70;;;;;;;25.77;59.45;99054.56;104599;1274;61171;-24
2022/07/04 05:58:06;;;;;;;8.10;7.00;;;;;;;25.76;58.32;99055.55;104611;1274;61112;-24
2022/07/04 06:00:34;;;;;;;8.30;7.20;;;;;;;25.71;58.60;99057.05;104611;1274;76607;-24
2022/07/04 06:03:01;;;;;;;12.50;7.20;;;;;;;25.77;58.33;99057.27;104811;1274;76125;-24
2022/07/04 06:05:28;;;;;;;8.80;7.30;;;;;;;25.95;58.18;99055.89;104634;1274;74407;-24
2022/07/04 06:07:56;;;;;;;13.30;9.20;;;;;;;26.10;57.65;99049.38;104727;1274;62022;-24
2022/07/04 06:10:23;;;;;;;10.60;9.10;;;;;;;26.21;57.84;99045.08;104925;1274;61243;-24
2022/07/04 06:12:52;;;;;;;12.20;10.00;;;;;;;26.29;57.41;99045.48;104875;1273;76698;-24
2022/07/04 06:15:20;;;;;;;11.60;8.80;;;;;;;26.33;57.06;99042.53;104883;1274;75614;-25
2022/07/04 06:17:47;;;;;;;11.80;7.60;;;;;;;26.31;57.61;99040.67;104662;1274;75366;-23
2022/07/04 06:20:15;;;;;;;10.70;7.50;;;;;;;26.11;56.80;99041.48;104888;1274;62742;-23
2022/07/04 06:22:44;;;;;;;29.10;16.50;;;;;;;25.96;57.15;99040.13;104980;1274;62698;-23
2022/07/04 06:25:13;;;;;;;16.40;9.70;;;;;;;26.04;57.52;99036.56;104645;1273;74541;-23
2022/07/04 06:27:41;;;;;;;11.30;8.00;;;;;;;26.36;57.05;99029.02;104655;1274;75848;-23
2022/07/04 06:30:09;;;;;;;8.70;6.60;;;;;;;26.64;55.64;99027.41;104433;1274;75340;-23
2022/07/04 06:32:43;;;;;;;8.40;6.00;;;;;;;26.69;55.12;99026.73;104312;1274;368691;-23
2022/07/04 06:37:57;;;;;;;8.70;6.90;;;;;;;26.01;55.91;99029.59;104601;1274;76687;-23
2022/07/04 06:40:25;;;;;;;9.80;7.70;;;;;;;26.66;55.40;99020.41;104632;1274;77015;-23
2022/07/04 06:42:53;;;;;;;13.00;7.80;;;;;;;26.85;54.14;99020.50;104857;1274;74162;-23
2022/07/04 06:45:20;;;;;;;7.70;6.90;;;;;;;27.04;54.05;99018.72;104734;1274;61975;-23
2022/07/04 06:47:48;;;;;;;17.80;7.50;;;;;;;27.39;53.64;99019.23;104748;1274;61043;-23
2022/07/04 06:50:15;;;;;;;20.90;13.30;;;;;;;27.60;53.60;99018.54;104888;1274;75559;-23
2022/07/04 06:53:03;;;;;;;10.40;7.00;;;;;;;27.06;52.27;99018.36;104905;1274;75103;-23
2022/07/04 06:55:32;;;;;;;11.70;8.70;;;;;;;27.13;53.08;99018.85;104767;1274;75409;-23
2022/07/04 06:58:00;;;;;;;8.20;6.80;;;;;;;27.15;53.62;99015.73;104912;1274;61057;-23
2022/07/04 07:00:30;;;;;;;11.00;6.60;;;;;;;27.48;52.36;99014.65;104898;1274;62811;-23
2022/07/04 07:02:58;;;;;;;7.60;6.40;;;;;;;27.75;51.47;99009.89;104673;1274;75748;-23
2022/07/04 07:05:26;;;;;;;8.50;5.50;;;;;;;27.97;49.97;99008.13;104555;1274;75874;-22
2022/07/04 07:08:14;;;;;;;7.40;5.60;;;;;;;28.21;50.82;99011.67;104673;1274;74268;-23
2022/07/04 07:10:41;;;;;;;10.10;7.00;;;;;;;28.36;50.35;99015.50;104867;1274;62047;-23
2022/07/04 07:13:08;;;;;;;7.20;6.00;;;;;;;28.39;50.35;99013.83;104814;1274;63052;-23
2022/07/04 07:15:36;;;;;;;10.40;4.70;;;;;;;28.54;49.17;99012.19;104689;1274;76579;-22
2022/07/04 07:18:04;;;;;;;28.30;5.30;;;;;;;28.31;49.05;99011.57;104802;1272;77383;-22
2022/07/04 07:20:34;;;;;;;9.00;4.80;;;;;;;28.14;48.84;99011.56;104974;1274;74320;-24
2022/07/04 07:23:04;;;;;;;6.80;4.80;;;;;;;28.25;48.76;99011.96;105013;1274;63027;-22
2022/07/04 07:25:32;;;;;;;5.40;4.40;;;;;;;28.33;48.60;99009.47;104703;1274;63101;-22
2022/07/04 07:27:59;;;;;;;4.90;4.50;;;;;;;28.40;48.43;99006.25;104788;1274;76547;-24
2022/07/04 07:30:27;;;;;;;6.90;4.40;;;;;;;28.48;47.75;99004.27;105074;1274;75912;-23
2022/07/04 07:32:55;;;;;;;6.90;4.00;;;;;;;28.52;48.44;99003.52;105139;1274;75181;-24
2022/07/04 07:35:22;;;;;;;5.10;4.60;;;;;;;28.62;48.44;99003.11;104817;1274;61144;-24
2022/07/04 07:37:50;;;;;;;5.30;4.40;;;;;;;28.62;48.15;99002.77;104670;1274;62103;-24
2022/07/04 07:40:18;;;;;;;4.50;4.10;;;;;;;28.03;48.09;98999.83;104791;1274;76567;-24
2022/07/04 07:42:45;;;;;;;5.00;4.40;;;;;;;27.90;48.12;98998.70;104815;1274;75872;-24
2022/07/04 07:45:12;;;;;;;4.60;3.90;;;;;;;27.94;48.11;98997.05;105016;1274;74347;-21
2022/07/04 07:47:40;;;;;;;4.50;4.10;;;;;;;28.12;48.05;98997.92;104644;1274;61165;-22
2022/07/04 07:50:07;;;;;;;4.30;3.90;;;;;;;28.26;47.75;98995.54;104754;1274;61850;-22
2022/07/04 07:52:36;;;;;;;5.20;4.10;;;;;;;28.50;47.02;98996.54;104911;1274;75572;-22
2022/07/04 07:55:05;;;;;;;4.50;4.10;;;;;;;28.64;45.98;98992.48;105094;1274;77301;-22
2022/07/04 07:57:32;;;;;;;5.50;4.20;;;;;;;28.70;45.32;98996.26;104632;1273;75435;-22
2022/07/04 07:59:59;;;;;;;5.60;4.00;;;;;;;28.86;45.29;98995.48;104850;1274;61710;-24
2022/07/04 08:05:13;;;;;;;4.20;3.70;;;;;;;28.82;44.92;98992.79;105103;1274;75631;-23
2022/07/04 08:07:40;;;;;;;5.10;3.90;;;;;;;29.02;44.90;98991.62;104852;1274;77093;-24
2022/07/04 08:10:08;;;;;;;4.80;3.50;;;;;;;29.13;43.53;98986.66;104736;1273;75294;-23
2022/07/04 08:12:35;;;;;;;4.50;3.70;;;;;;;29.11;44.08;98987.59;104618;1274;62756;-22
2022/07/04 08:15:03;;;;;;;4.10;3.70;;;;;;;29.10;44.54;98987.58;104584;1273;62131;-23
2022/07/04 08:17:34;;;;;;;4.50;3.90;;;;;;;29.11;44.19;98985.09;104566;1274;75491;-23
2022/07/04 08:20:06;;;;;;;7.30;3.40;;;;;;;29.32;43.52;98986.46;104650;1272;76037;-23
2022/07/04 08:22:33;;;;;;;3.90;3.40;;;;;;;29.41;42.69;98990.17;104528;1273;74174;-22
2022/07/04 08:25:00;;;;;;;3.50;2.90;;;;;;;29.72;42.22;98988.04;104542;1274;61721;-22
2022/07/04 08:27:28;;;;;;;6.10;3.50;;;;;;;30.12;41.18;98983.86;104650;1274;61132;-22
2022/07/04 08:30:00;;;;;;;3.60;3.30;;;;;;;30.26;39.32;98981.77;105038;1273;76731;-23
2022/07/04 08:32:27;;;;;;;4.50;2.90;;;;;;;29.98;38.98;98982.06;104884;1274;77012;-23
2022/07/04 08:34:56;;;;;;;4.00;3.50;;;;;;;29.94;39.75;98981.54;104767;1274;74102;-22
2022/07/04 08:37:24;;;;;;;5.20;3.60;;;;;;;30.08;39.15;98976.58;105099;1274;61813;-22
2022/07/04 08:39:54;;;;;;;5.00;3.90;;;;;;;30.20;39.56;98977.21;104707;1274;62564;-22
2022/07/04 08:42:21;;;;;;;4.00;3.60;;;;;;;30.41;39.04;98981.73;104858;1274;75318;-22
2022/07/04 08:44:51;;;;;;;9.60;3.60;;;;;;;30.69;38.46;98976.01;104784;1274;77000;-23
2022/07/04 08:47:20;;;;;;;3.50;3.20;;;;;;;30.97;38.05;98979.44;104743;1274;75496;-23
2022/07/04 08:50:11;;;;;;;4.40;4.00;;;;;;;31.20;38.23;98975.45;104873;1274;61127;-23
2022/07/04 08:52:45;;;;;;;7.90;3.60;;;;;;;31.43;37.39;98974.14;104753;1274;61961;-23
2022/07/04 09:00:45;;;;;;;4.20;3.80;;;;;;;31.39;37.47;98976.91;105096;1274;74469;-24
2022/07/04 09:03:12;;;;;;;5.00;4.30;;;;;;;31.62;36.64;98972.02;104815;1274;61087;-23
2022/07/04 09:05:40;;;;;;;4.00;3.50;;;;;;;31.61;36.34;98969.23;105089;1274;61350;-23
2022/07/04 09:08:07;;;;;;;5.50;4.10;;;;;;;32.04;35.24;98969.61;105066;1274;76427;-23
2022/07/04 09:10:35;;;;;;;5.10;4.40;;;;;;;32.39;36.58;98971.54;105034;1273;76971;-24
2022/07/04 09:13:03;;;;;;;7.00;4.20;;;;;;;32.69;35.80;98970.79;104640;1274;74294;-24
2022/07/04 09:15:43;;;;;;;4.70;3.40;;;;;;;32.46;36.29;98969.01;104615;1274;61578;-24
2022/07/04 09:18:25;;;;;;;5.20;3.40;;;;;;;32.26;35.88;98972.64;104680;1274;62930;-24
2022/07/04 09:20:54;;;;;;;4.40;3.80;;;;;;;32.00;35.67;98971.28;104665;1274;75756;-24
2022/07/04 09:23:26;;;;;;;19.30;16.30;;;;;;;31.64;36.07;98971.55;104765;1274;74952;-24
2022/07/04 09:26:13;;;;;;;5.60;5.00;;;;;;;31.08;37.37;98975.44;104770;1274;75912;-24
2022/07/04 09:28:45;;;;;;;5.30;4.10;;;;;;;30.84;38.08;98974.48;104711;1274;63142;-24
2022/07/04 09:31:26;;;;;;;3.80;3.50;;;;;;;30.50;39.43;98973.19;104668;1274;62137;-23
2022/07/04 09:34:03;;;;;;;6.20;3.50;;;;;;;29.87;41.74;98974.27;104999;1274;76543;-23
2022/07/04 09:36:38;;;;;;;4.70;3.40;;;;;;;29.59;41.62;98976.67;104634;1274;75998;-23
2022/07/04 09:39:06;;;;;;;4.70;3.80;;;;;;;29.26;42.59;98974.59;104699;1273;75929;-25
2022/07/04 09:41:55;;;;;;;5.80;3.40;;;;;;;29.26;43.29;98974.74;104727;1274;63111;-23
2022/07/04 09:44:28;;;;;;;6.20;3.80;;;;;;;29.67;42.57;98975.32;104883;1274;62756;-23
2022/07/04 09:46:59;;;;;;;4.70;3.40;;;;;;;30.17;41.36;98974.92;104725;1274;75088;-23
2022/07/04 09:49:27;;;;;;;6.30;4.10;;;;;;;30.66;39.71;98970.88;104864;1274;75989;-23
2022/07/04 09:51:55;;;;;;;4.10;3.40;;;;;;;31.13;38.72;98965.69;104782;1274;73530;-23
2022/07/04 09:54:31;;;;;;;3.70;3.30;;;;;;;31.43;36.59;98964.98;104739;1273;63164;-23
2022/07/04 09:57:01;;;;;;;4.00;3.40;;;;;;;31.31;36.21;98960.66;104894;1274;62044;-23
2022/07/04 09:59:30;;;;;;;4.10;3.70;;;;;;;31.60;35.64;98958.20;104881;1274;76546;-23
2022/07/04 10:02:08;;;;;;;4.70;3.70;;;;;;;31.81;36.03;98956.14;104808;1274;76927;-23
2022/07/04 10:04:45;;;;;;;4.60;3.70;;;;;;;32.41;35.28;98957.42;104864;1274;74685;-23
2022/07/04 10:07:12;;;;;;;4.40;3.60;;;;;;;32.98;34.15;98955.79;104935;1274;61311;-23
2022/07/04 10:09:40;;;;;;;4.30;3.90;;;;;;;32.26;34.86;98948.55;105075;1274;63453;-23
2022/07/04 10:12:08;;;;;;;4.40;3.50;;;;;;;31.37;36.52;98955.67;105094;1274;76589;-23
2022/07/04 10:14:36;;;;;;;31.10;4.80;;;;;;;31.30;37.67;98947.48;104896;1274;76748;-23
2022/07/04 10:17:04;;;;;;;4.70;3.60;;;;;;;31.45;37.20;98950.89;104872;1274;75199;-23
2022/07/04 10:19:35;;;;;;;3.90;3.50;;;;;;;31.76;36.53;98952.42;104678;1274;61982;-23
2022/07/04 10:22:05;;;;;;;4.70;3.60;;;;;;;32.01;33.47;98948.83;104833;1274;61121;-23
2022/07/04 10:24:32;;;;;;;4.70;3.30;;;;;;;32.41;34.07;98948.33;104703;1274;76561;-23
2022/07/04 10:26:59;;;;;;;3.90;3.40;;;;;;;32.92;33.74;98945.18;104729;1274;75075;-23
2022/07/04 10:29:27;;;;;;;4.40;3.80;;;;;;;32.66;31.57;98942.23;104745;1274;75410;-23
2022/07/04 10:31:54;;;;;;;4.30;3.90;;;;;;;32.50;31.34;98943.56;104546;1274;61984;-23
2022/07/04 10:34:22;;;;;;;4.70;4.10;;;;;;;32.75;31.91;98940.59;104813;1274;61995;-23
2022/07/04 10:36:52;;;;;;;4.00;3.60;;;;;;;32.97;31.83;98937.66;104748;1274;76538;-23
2022/07/04 10:39:24;;;;;;;4.30;3.90;;;;;;;32.97;32.52;98941.50;104423;1274;76107;-24
2022/07/04 10:42:01;;;;;;;5.50;4.00;;;;;;;33.47;32.74;98937.69;104666;1274;74274;-23
2022/07/04 10:44:37;;;;;;;4.20;3.80;;;;;;;33.86;31.75;98939.04;104755;1274;62102;-23
2022/07/04 10:47:05;;;;;;;3.70;3.40;;;;;;;33.55;31.77;98940.61;104864;1274;62276;-23
2022/07/04 10:49:34;;;;;;;4.20;3.80;;;;;;;34.03;31.85;98941.07;104779;1274;76352;-23
2022/07/04 10:52:12;;;;;;;5.70;3.80;;;;;;;34.13;31.94;98939.42;104589;1274;76817;-23
2022/07/04 10:54:41;;;;;;;3.70;3.40;;;;;;;34.27;30.85;98938.59;104457;1273;75770;-23
2022/07/04 10:57:17;;;;;;;4.40;4.00;;;;;;;34.49;30.14;98931.48;104721;1274;62624;-23
2022/07/04 10:59:53;;;;;;;4.60;4.10;;;;;;;33.24;30.45;98931.77;104596;1274;62331;-23
2022/07/04 11:02:23;;;;;;;4.50;4.10;;;;;;;32.90;30.79;98931.72;104640;1274;75862;-23
2022/07/04 11:04:53;;;;;;;;;;;;;;;32.84;30.90;98928.00;104706;1274;75848;-24
2022/07/04 11:07:23;;;;;;;3.70;3.30;;;;;;;33.12;31.98;98920.83;105053;1274;75434;-23
2022/07/04 11:10:09;;;;;;;4.20;3.80;;;;;;;32.87;31.81;98919.36;104510;1274;63306;-23
2022/07/04 11:13:02;;;;;;;5.30;3.70;;;;;;;32.71;33.04;98923.83;104718;1274;62521;-24
2022/07/04 11:15:33;;;;;;;4.10;3.40;;;;;;;32.67;32.38;98926.87;104728;1274;76566;-24
2022/07/04 11:18:01;;;;;;;6.40;3.50;;;;;;;32.70;32.56;98928.20;104833;1274;77025;-23
2022/07/04 11:20:31;;;;;;;3.80;3.50;;;;;;;32.71;32.36;98924.75;104806;1274;74872;-23
2022/07/04 11:23:08;;;;;;;4.10;3.40;;;;;;;32.45;32.88;98930.85;105016;1274;63225;-24
2022/07/04 11:25:37;;;;;;;3.50;3.20;;;;;;;32.31;32.74;98931.04;104867;1274;61105;-24
2022/07/04 11:28:22;;;;;;;3.90;3.00;;;;;;;32.42;31.76;98923.55;104863;1274;75513;-24
2022/07/04 11:31:10;;;;;;;4.80;3.40;;;;;;;32.53;32.55;98919.58;104881;1274;75622;-23
2022/07/04 11:33:40;;;;;;;3.80;3.30;;;;;;;31.92;32.93;98916.69;105122;1273;75426;-24
2022/07/04 11:36:12;;;;;;;4.70;2.90;;;;;;;31.88;32.42;98907.20;104770;1274;61872;-24
2022/07/04 11:38:43;;;;;;;3.50;3.20;;;;;;;32.09;31.92;98908.11;104640;1274;61527;-24
2022/07/04 11:46:43;;;;;;;3.20;2.90;;;;;;;33.05;31.69;98904.58;105112;1274;75427;-24
2022/07/04 11:49:12;;;;;;;3.80;3.40;;;;;;;32.78;30.81;98899.67;104917;1273;61962;-24
2022/07/04 11:51:46;;;;;;;3.30;3.00;;;;;;;32.30;32.00;98902.21;104705;1274;62042;-24
2022/07/04 11:54:14;;;;;;;4.50;2.70;;;;;;;32.44;32.55;98901.71;104779;1274;75560;-24